Time,TemperatureF,DewpointF,PressureIn,WindDirection,WindDirectionDegrees,WindSpeedMPH,WindSpeedGustMPH,Humidity,HourlyPrecipIn,Conditions,Clouds,dailyrainin,SoftwareType,DateUTC
2013-05-04 00:01:00,32.0,18.0,-100.00,WNW,282,5.0,7.0,56,0.00,,,-99.99,,2013-05-04 06:01:00,
2013-05-04 00:11:00,32.0,18.0,-100.00,NW,322,4.0,6.0,58,0.00,,,-99.99,,2013-05-04 06:11:00,
2013-05-04 00:21:00,32.0,18.0,-100.00,NW,322,4.0,7.0,58,0.00,,,-99.99,,2013-05-04 06:21:00,
2013-05-04 00:32:00,32.0,18.0,-100.00,NNW,329,5.0,9.0,56,0.00,,,-99.99,,2013-05-04 06:32:00,
2013-05-04 00:41:00,32.0,19.0,-100.00,NNW,332,4.0,7.0,57,0.00,,,-99.99,,2013-05-04 06:41:00,
2013-05-04 00:52:00,33.0,18.0,-100.00,NNW,339,6.0,9.0,55,0.00,,,-99.99,,2013-05-04 06:52:00,
2013-05-04 01:01:00,33.0,20.0,-100.00,North,349,6.0,9.0,58,0.00,,,-99.99,,2013-05-04 07:01:00,
2013-05-04 01:11:00,33.0,20.0,-100.00,North,350,9.0,12.0,59,0.00,,,-99.99,,2013-05-04 07:11:00,
2013-05-04 01:21:00,32.0,21.0,-100.00,North,350,9.0,11.0,64,0.00,,,-99.99,,2013-05-04 07:21:00,
2013-05-04 01:32:00,31.0,21.0,-100.00,North,350,7.0,10.0,66,0.00,,,-99.99,,2013-05-04 07:32:00,
2013-05-04 01:52:00,31.0,21.0,-100.00,North,10,6.0,10.0,66,0.00,,,-99.99,,2013-05-04 07:52:00,
2013-05-04 02:01:00,31.0,21.0,-100.00,NE,42,6.0,9.0,66,0.00,,,-99.99,,2013-05-04 08:01:00,
2013-05-04 02:11:00,31.0,22.0,-100.00,NE,42,7.0,11.0,68,0.00,,,-99.99,,2013-05-04 08:11:00,
2013-05-04 02:21:00,31.0,22.0,-100.00,NE,52,7.0,12.0,69,0.00,,,-99.99,,2013-05-04 08:21:00,
2013-05-04 02:31:00,31.0,22.0,-100.00,East,90,5.0,9.0,69,0.00,,,-99.99,,2013-05-04 08:31:00,
2013-05-04 02:41:00,30.0,22.0,-100.00,SE,145,7.0,12.0,70,0.00,,,-99.99,,2013-05-04 08:41:00,
2013-05-04 02:52:00,30.0,22.0,-100.00,SSE,168,6.0,9.0,72,0.00,,,-99.99,,2013-05-04 08:52:00,
2013-05-04 03:02:00,30.0,22.0,-100.00,South,169,4.0,6.0,73,0.00,,,-99.99,,2013-05-04 09:02:00,
2013-05-04 03:11:00,30.0,22.0,-100.00,South,169,3.0,5.0,73,0.00,,,-99.99,,2013-05-04 09:11:00,
2013-05-04 03:21:00,30.0,22.0,-100.00,South,169,4.0,7.0,70,0.00,,,-99.99,,2013-05-04 09:21:00,
2013-05-04 03:32:00,30.0,22.0,-100.00,South,169,4.0,7.0,70,0.00,,,-99.99,,2013-05-04 09:32:00,
2013-05-04 03:42:00,31.0,22.0,-100.00,South,169,4.0,6.0,69,0.00,,,-99.99,,2013-05-04 09:42:00,
2013-05-04 03:52:00,31.0,21.0,-100.00,South,169,4.0,6.0,68,0.00,,,-99.99,,2013-05-04 09:52:00,
2013-05-04 04:02:00,31.0,21.0,-100.00,South,169,4.0,6.0,68,0.00,,,-99.99,,2013-05-04 10:02:00,
2013-05-04 04:12:00,31.0,21.0,-100.00,South,169,4.0,6.0,67,0.00,,,-99.99,,2013-05-04 10:12:00,
2013-05-04 04:22:00,30.0,22.0,-100.00,South,169,4.0,7.0,69,0.00,,,-99.99,,2013-05-04 10:22:00,
2013-05-04 04:33:00,30.0,21.0,-100.00,South,169,4.0,4.0,69,0.00,,,-99.99,,2013-05-04 10:33:00,
2013-05-04 04:52:00,31.0,21.0,-100.00,South,169,3.0,6.0,66,0.00,,,-99.99,,2013-05-04 10:52:00,
2013-05-04 05:02:00,32.0,21.0,-100.00,South,169,3.0,9.0,65,0.00,,,-99.99,,2013-05-04 11:02:00,
2013-05-04 05:11:00,32.0,22.0,-100.00,South,169,4.0,9.0,65,0.00,,,-99.99,,2013-05-04 11:11:00,
2013-05-04 05:21:00,32.0,23.0,-100.00,South,169,4.0,7.0,68,0.00,,,-99.99,,2013-05-04 11:21:00,
2013-05-04 05:32:00,32.0,24.0,-100.00,South,169,4.0,12.0,71,0.00,,,-99.99,,2013-05-04 11:32:00,
2013-05-04 05:42:00,33.0,24.0,-100.00,South,169,11.0,14.0,70,0.00,,,-99.99,,2013-05-04 11:42:00,
2013-05-04 05:54:00,32.0,24.0,-100.00,South,169,9.0,12.0,70,0.00,,,-99.99,,2013-05-04 11:54:00,
2013-05-04 06:13:00,31.0,24.0,-100.00,South,169,9.0,12.0,75,0.00,,,-99.99,,2013-05-04 12:13:00,
2013-05-04 06:51:00,33.0,24.0,-100.00,South,169,6.0,9.0,69,0.00,,,-99.99,,2013-05-04 12:51:00,
2013-05-04 07:01:00,32.0,24.0,-100.00,South,169,7.0,9.0,72,0.00,,,-99.99,,2013-05-04 13:01:00,
2013-05-04 07:11:00,32.0,24.0,-100.00,South,169,7.0,9.0,74,0.00,,,-99.99,,2013-05-04 13:11:00,
2013-05-04 07:21:00,33.0,24.0,-100.00,South,169,4.0,7.0,69,0.00,,,-99.99,,2013-05-04 13:21:00,
2013-05-04 07:41:00,35.0,24.0,-100.00,South,169,4.0,6.0,62,0.00,,,-99.99,,2013-05-04 13:41:00,
2013-05-04 07:52:00,36.0,22.0,-100.00,South,169,4.0,7.0,58,0.00,,,-99.99,,2013-05-04 13:52:00,
2013-05-04 08:02:00,36.0,21.0,-100.00,South,169,7.0,11.0,55,0.00,,,-99.99,,2013-05-04 14:02:00,
2013-05-04 08:11:00,37.0,22.0,-100.00,South,169,7.0,13.0,53,0.00,,,-99.99,,2013-05-04 14:11:00,
2013-05-04 08:21:00,37.0,21.0,-100.00,South,169,7.0,11.0,52,0.00,,,-99.99,,2013-05-04 14:21:00,
2013-05-04 08:32:00,36.0,19.0,-100.00,South,169,9.0,13.0,50,0.00,,,-99.99,,2013-05-04 14:32:00,
2013-05-04 08:41:00,36.0,20.0,-100.00,South,169,10.0,14.0,52,0.00,,,-99.99,,2013-05-04 14:41:00,
2013-05-04 08:51:00,37.0,21.0,-100.00,South,169,9.0,12.0,52,0.00,,,-99.99,,2013-05-04 14:51:00,
2013-05-04 09:02:00,37.0,20.0,-100.00,South,169,9.0,14.0,50,0.00,,,-99.99,,2013-05-04 15:02:00,
2013-05-04 09:11:00,37.0,23.0,-100.00,South,169,10.0,14.0,56,0.00,,,-99.99,,2013-05-04 15:11:00,
2013-05-04 09:21:00,38.0,22.0,-100.00,South,169,9.0,14.0,53,0.00,,,-99.99,,2013-05-04 15:21:00,
2013-05-04 09:33:00,38.0,21.0,-100.00,South,169,8.0,12.0,51,0.00,,,-99.99,,2013-05-04 15:33:00,
2013-05-04 09:43:00,38.0,23.0,-100.00,South,169,9.0,12.0,54,0.00,,,-99.99,,2013-05-04 15:43:00,
2013-05-04 09:52:00,36.0,24.0,-100.00,South,169,9.0,14.0,61,0.00,,,-99.99,,2013-05-04 15:52:00,
2013-05-04 10:03:00,37.0,24.0,-100.00,South,169,7.0,14.0,59,0.00,,,-99.99,,2013-05-04 16:03:00,
2013-05-04 10:12:00,36.0,22.0,-100.00,South,169,8.0,14.0,56,0.00,,,-99.99,,2013-05-04 16:12:00,
2013-05-04 10:22:00,36.0,23.0,-100.00,South,169,9.0,17.0,60,0.00,,,-99.99,,2013-05-04 16:22:00,
2013-05-04 10:33:00,36.0,23.0,-100.00,South,169,8.0,14.0,60,0.00,,,-99.99,,2013-05-04 16:33:00,
2013-05-04 10:42:00,36.0,23.0,-100.00,South,169,8.0,12.0,59,0.00,,,-99.99,,2013-05-04 16:42:00,
2013-05-04 10:52:00,36.0,23.0,-100.00,South,169,8.0,14.0,60,0.00,,,-99.99,,2013-05-04 16:52:00,
2013-05-04 11:02:00,37.0,24.0,-100.00,South,169,8.0,14.0,58,0.00,,,-99.99,,2013-05-04 17:02:00,
2013-05-04 11:12:00,37.0,22.0,-100.00,South,169,9.0,14.0,55,0.00,,,-99.99,,2013-05-04 17:12:00,
2013-05-04 11:22:00,37.0,23.0,-100.00,South,169,9.0,17.0,56,0.00,,,-99.99,,2013-05-04 17:22:00,
2013-05-04 11:32:00,36.0,23.0,-100.00,South,169,9.0,18.0,57,0.00,,,-99.99,,2013-05-04 17:32:00,
2013-05-04 11:42:00,36.0,22.0,-100.00,South,169,11.0,21.0,56,0.00,,,-99.99,,2013-05-04 17:42:00,
2013-05-04 11:52:00,36.0,23.0,-100.00,South,169,9.0,17.0,59,0.00,,,-99.99,,2013-05-04 17:52:00,
2013-05-04 12:01:00,37.0,24.0,-100.00,South,169,9.0,15.0,59,0.00,,,-99.99,,2013-05-04 18:01:00,
2013-05-04 12:12:00,37.0,24.0,-100.00,South,169,8.0,14.0,59,0.00,,,-99.99,,2013-05-04 18:12:00,
2013-05-04 12:21:00,36.0,24.0,-100.00,South,169,9.0,17.0,60,0.00,,,-99.99,,2013-05-04 18:21:00,
2013-05-04 12:32:00,37.0,24.0,-100.00,South,169,10.0,18.0,60,0.00,,,-99.99,,2013-05-04 18:32:00,
2013-05-04 12:42:00,37.0,24.0,-100.00,South,169,11.0,17.0,58,0.00,,,-99.99,,2013-05-04 18:42:00,
2013-05-04 12:52:00,36.0,25.0,-100.00,South,169,12.0,21.0,64,0.00,,,-99.99,,2013-05-04 18:52:00,
2013-05-04 13:01:00,38.0,27.0,-100.00,South,169,11.0,18.0,65,0.00,,,-99.99,,2013-05-04 19:01:00,
2013-05-04 13:11:00,37.0,26.0,-100.00,South,169,11.0,18.0,63,0.00,,,-99.99,,2013-05-04 19:11:00,
2013-05-04 13:21:00,36.0,26.0,-100.00,South,169,13.0,18.0,67,0.00,,,-99.99,,2013-05-04 19:21:00,
2013-05-04 13:32:00,36.0,25.0,-100.00,South,169,13.0,18.0,63,0.00,,,-99.99,,2013-05-04 19:32:00,
2013-05-04 13:42:00,36.0,24.0,-100.00,South,169,14.0,19.0,60,0.00,,,-99.99,,2013-05-04 19:42:00,
2013-05-04 13:52:00,36.0,23.0,-100.00,South,169,14.0,19.0,58,0.00,,,-99.99,,2013-05-04 19:52:00,
2013-05-04 14:02:00,36.0,23.0,-100.00,South,169,15.0,20.0,59,0.00,,,-99.99,,2013-05-04 20:02:00,
2013-05-04 14:11:00,37.0,23.0,-100.00,South,169,14.0,20.0,56,0.00,,,-99.99,,2013-05-04 20:11:00,
2013-05-04 14:22:00,37.0,24.0,-100.00,South,169,15.0,21.0,61,0.00,,,-99.99,,2013-05-04 20:22:00,
2013-05-04 14:32:00,36.0,22.0,-100.00,South,169,13.0,21.0,56,0.00,,,-99.99,,2013-05-04 20:32:00,
2013-05-04 14:42:00,37.0,25.0,-100.00,South,169,14.0,21.0,61,0.00,,,-99.99,,2013-05-04 20:42:00,
2013-05-04 14:51:00,37.0,25.0,-100.00,South,169,12.0,18.0,60,0.00,,,-99.99,,2013-05-04 20:51:00,
2013-05-04 15:02:00,36.0,26.0,-100.00,South,169,12.0,22.0,65,0.00,,,-99.99,,2013-05-04 21:02:00,
2013-05-04 15:11:00,35.0,25.0,-100.00,South,169,12.0,22.0,67,0.00,,,-99.99,,2013-05-04 21:11:00,
2013-05-04 15:22:00,36.0,26.0,-100.00,South,169,11.0,19.0,69,0.00,,,-99.99,,2013-05-04 21:22:00,
2013-05-04 15:33:00,36.0,27.0,-100.00,South,169,12.0,21.0,69,0.00,,,-99.99,,2013-05-04 21:33:00,
2013-05-04 15:43:00,36.0,27.0,-100.00,South,169,11.0,17.0,68,0.00,,,-99.99,,2013-05-04 21:43:00,
2013-05-04 15:52:00,36.0,26.0,-100.00,South,169,12.0,21.0,69,0.00,,,-99.99,,2013-05-04 21:52:00,
2013-05-04 16:03:00,36.0,26.0,-100.00,South,169,12.0,22.0,69,0.00,,,-99.99,,2013-05-04 22:03:00,
2013-05-04 16:12:00,35.0,26.0,-100.00,South,169,12.0,22.0,68,0.00,,,-99.99,,2013-05-04 22:12:00,
2013-05-04 16:22:00,35.0,26.0,-100.00,South,169,11.0,17.0,68,0.00,,,-99.99,,2013-05-04 22:22:00,
2013-05-04 16:33:00,35.0,26.0,-100.00,South,169,12.0,22.0,69,0.00,,,-99.99,,2013-05-04 22:33:00,
2013-05-04 16:42:00,35.0,27.0,-100.00,South,169,11.0,20.0,73,0.00,,,-99.99,,2013-05-04 22:42:00,
2013-05-04 16:52:00,35.0,26.0,-100.00,South,169,13.0,21.0,71,0.00,,,-99.99,,2013-05-04 22:52:00,
2013-05-04 17:02:00,35.0,26.0,-100.00,South,169,12.0,20.0,71,0.00,,,-99.99,,2013-05-04 23:02:00,
2013-05-04 17:11:00,35.0,26.0,-100.00,South,169,13.0,21.0,70,0.00,,,-99.99,,2013-05-04 23:11:00,
2013-05-04 17:21:00,35.0,26.0,-100.00,South,169,12.0,22.0,71,0.00,,,-99.99,,2013-05-04 23:21:00,
2013-05-04 17:32:00,35.0,26.0,-100.00,South,169,14.0,22.0,71,0.00,,,-99.99,,2013-05-04 23:32:00,
2013-05-04 17:42:00,34.0,26.0,-100.00,South,169,14.0,23.0,73,0.00,,,-99.99,,2013-05-04 23:42:00,
2013-05-04 17:52:00,35.0,26.0,-100.00,South,169,12.0,22.0,69,0.00,,,-99.99,,2013-05-04 23:52:00,
2013-05-04 18:01:00,34.0,25.0,-100.00,South,169,12.0,23.0,69,0.00,,,-99.99,,2013-05-05 00:01:00,
2013-05-04 18:11:00,34.0,25.0,-100.00,South,169,13.0,23.0,69,0.00,,,-99.99,,2013-05-05 00:11:00,
2013-05-04 18:21:00,34.0,26.0,-100.00,South,169,12.0,22.0,72,0.00,,,-99.99,,2013-05-05 00:21:00,
2013-05-04 18:31:00,33.0,26.0,-100.00,South,169,11.0,17.0,72,0.00,,,-99.99,,2013-05-05 00:31:00,
2013-05-04 18:42:00,33.0,26.0,-100.00,South,169,10.0,17.0,72,0.00,,,-99.99,,2013-05-05 00:42:00,
2013-05-04 18:51:00,33.0,25.0,-100.00,South,169,11.0,19.0,72,0.00,,,-99.99,,2013-05-05 00:51:00,
2013-05-04 19:01:00,33.0,25.0,-100.00,South,169,11.0,21.0,70,0.00,,,-99.99,,2013-05-05 01:01:00,
2013-05-04 19:11:00,33.0,25.0,-100.00,South,169,11.0,19.0,72,0.00,,,-99.99,,2013-05-05 01:11:00,
2013-05-04 19:21:00,33.0,24.0,-100.00,South,169,10.0,18.0,71,0.00,,,-99.99,,2013-05-05 01:21:00,
2013-05-04 19:32:00,33.0,25.0,-100.00,South,169,9.0,19.0,72,0.00,,,-99.99,,2013-05-05 01:32:00,
2013-05-04 19:42:00,32.0,24.0,-100.00,South,169,9.0,17.0,71,0.00,,,-99.99,,2013-05-05 01:42:00,
2013-05-04 19:52:00,32.0,25.0,-100.00,South,169,9.0,17.0,73,0.00,,,-99.99,,2013-05-05 01:52:00,
2013-05-04 20:02:00,32.0,24.0,-100.00,South,169,9.0,16.0,72,0.00,,,-99.99,,2013-05-05 02:02:00,
2013-05-04 20:11:00,32.0,24.0,-100.00,South,169,9.0,16.0,72,0.00,,,-99.99,,2013-05-05 02:11:00,
2013-05-04 20:21:00,32.0,24.0,-100.00,South,169,7.0,14.0,73,0.00,,,-99.99,,2013-05-05 02:21:00,
2013-05-04 20:31:00,31.0,24.0,-100.00,South,169,7.0,12.0,73,0.00,,,-99.99,,2013-05-05 02:31:00,
2013-05-04 20:42:00,31.0,24.0,-100.00,South,169,9.0,16.0,73,0.00,,,-99.99,,2013-05-05 02:42:00,
2013-05-04 20:52:00,31.0,24.0,-100.00,South,169,9.0,17.0,73,0.00,,,-99.99,,2013-05-05 02:52:00,
2013-05-04 21:01:00,31.0,23.0,-100.00,South,169,9.0,16.0,73,0.00,,,-99.99,,2013-05-05 03:01:00,
2013-05-04 21:11:00,31.0,23.0,-100.00,South,169,10.0,17.0,73,0.00,,,-99.99,,2013-05-05 03:11:00,
2013-05-04 21:21:00,31.0,23.0,-100.00,South,169,10.0,15.0,73,0.00,,,-99.99,,2013-05-05 03:21:00,
2013-05-04 21:33:00,30.0,23.0,-100.00,South,169,11.0,19.0,74,0.00,,,-99.99,,2013-05-05 03:33:00,
2013-05-04 21:42:00,31.0,23.0,-100.00,South,169,12.0,17.0,73,0.00,,,-99.99,,2013-05-05 03:42:00,
2013-05-04 21:52:00,31.0,22.0,-100.00,South,169,12.0,17.0,72,0.00,,,-99.99,,2013-05-05 03:52:00,
2013-05-04 22:02:00,31.0,22.0,-100.00,South,169,13.0,19.0,69,0.00,,,-99.99,,2013-05-05 04:02:00,
2013-05-04 22:12:00,31.0,22.0,-100.00,South,169,13.0,22.0,68,0.00,,,-99.99,,2013-05-05 04:12:00,
2013-05-04 22:22:00,31.0,22.0,-100.00,South,169,12.0,19.0,69,0.00,,,-99.99,,2013-05-05 04:22:00,
2013-05-04 22:32:00,31.0,22.0,-100.00,South,169,11.0,15.0,70,0.00,,,-99.99,,2013-05-05 04:32:00,
2013-05-04 22:43:00,31.0,23.0,-100.00,South,169,11.0,17.0,73,0.00,,,-99.99,,2013-05-05 04:43:00,
2013-05-04 22:52:00,30.0,23.0,-100.00,South,169,9.0,14.0,75,0.00,,,-99.99,,2013-05-05 04:52:00,
2013-05-04 23:02:00,30.0,23.0,-100.00,South,169,9.0,13.0,74,0.00,,,-99.99,,2013-05-05 05:02:00,
2013-05-04 23:12:00,30.0,22.0,-100.00,South,169,9.0,14.0,72,0.00,,,-99.99,,2013-05-05 05:12:00,
2013-05-04 23:21:00,30.0,22.0,-100.00,South,169,9.0,14.0,71,0.00,,,-99.99,,2013-05-05 05:21:00,
2013-05-04 23:31:00,30.0,22.0,-100.00,South,169,10.0,14.0,71,0.00,,,-99.99,,2013-05-05 05:31:00,
2013-05-04 23:42:00,30.0,21.0,-100.00,South,169,10.0,15.0,69,0.00,,,-99.99,,2013-05-05 05:42:00,
2013-05-04 23:51:00,29.0,21.0,-100.00,South,169,9.0,13.0,70,0.00,,,-99.99,,2013-05-05 05:51:00,